createdAt,value
2019-06-15T00:02:32.791Z,99.87
2019-06-15T00:05:38.056Z,99.15
2019-06-15T00:08:43.333Z,95.81
2019-06-15T00:11:48.523Z,97.35
2019-06-15T00:14:53.653Z,98.19
2019-06-15T00:17:58.818Z,98.97
2019-06-15T00:21:04.013Z,99.77
2019-06-15T00:24:09.252Z,99.58
2019-06-15T00:27:14.473Z,98.65
2019-06-15T00:30:20.723Z,96.78
2019-06-15T00:33:25.889Z,96.99
2019-06-15T00:36:31.043Z,97.26
2019-06-15T00:39:36.383Z,97.58
2019-06-15T00:42:41.551Z,96.64
2019-06-15T00:45:46.741Z,96.91
2019-06-15T00:48:51.885Z,96.94
2019-06-15T00:51:57.066Z,98.12
2019-06-15T00:55:02.326Z,98.48
2019-06-15T00:58:07.623Z,98.45
2019-06-15T01:01:12.870Z,97.25
2019-06-15T01:04:18.401Z,97.30
2019-06-15T01:07:23.596Z,97.02
2019-06-15T01:10:28.737Z,94.99
2019-06-15T01:13:33.922Z,95.08
2019-06-15T01:16:39.105Z,95.59
2019-06-15T01:19:44.339Z,95.25
2019-06-15T01:22:49.638Z,96.07
2019-06-15T01:25:54.811Z,97.73
2019-06-15T01:28:59.995Z,97.62
2019-06-15T01:32:05.212Z,97.64
2019-06-15T01:35:10.568Z,96.89
2019-06-15T01:38:15.828Z,96.22
2019-06-15T01:41:20.994Z,97.18
2019-06-15T01:44:26.215Z,96.70
2019-06-15T01:47:31.376Z,97.80
2019-06-15T01:50:36.593Z,97.78
2019-06-15T01:53:41.760Z,98.08
2019-06-15T01:56:46.958Z,98.39
2019-06-15T01:59:52.207Z,97.37
2019-06-15T02:02:57.406Z,97.77
2019-06-15T02:06:02.943Z,96.88
2019-06-15T02:09:08.642Z,97.54
2019-06-15T02:12:13.915Z,98.08
2019-06-15T02:15:19.283Z,98.96
2019-06-15T02:18:24.546Z,99.16
2019-06-15T02:21:29.665Z,99.21
2019-06-15T02:24:34.875Z,99.58
2019-06-15T02:27:40.380Z,99.10
2019-06-15T02:30:45.577Z,98.85
2019-06-15T02:33:50.709Z,99.01
2019-06-15T02:36:55.890Z,99.22
2019-06-15T02:40:01.072Z,98.70
2019-06-15T02:43:06.308Z,99.19
2019-06-15T02:46:11.484Z,99.04
2019-06-15T02:49:16.655Z,99.70
2019-06-15T02:52:21.832Z,100.00
2019-06-15T02:55:27.227Z,100.00
2019-06-15T02:58:32.424Z,100.00
2019-06-15T03:01:37.668Z,100.00
2019-06-15T03:04:42.796Z,100.00
2019-06-15T03:07:48.013Z,100.00
2019-06-15T03:10:53.178Z,100.00
2019-06-15T03:13:59.138Z,100.00
2019-06-15T03:17:04.339Z,100.00
2019-06-15T03:20:10.291Z,100.00
2019-06-15T03:23:15.425Z,100.00
2019-06-15T03:26:20.601Z,100.00
2019-06-15T03:29:25.739Z,100.00
2019-06-15T03:32:30.953Z,100.00
2019-06-15T03:35:36.094Z,100.00
2019-06-15T03:38:41.333Z,100.00
2019-06-15T03:41:46.555Z,100.00
2019-06-15T03:44:51.746Z,100.00
2019-06-15T03:47:56.910Z,100.00
2019-06-15T03:51:02.105Z,100.00
2019-06-15T03:54:07.254Z,99.58
2019-06-15T03:57:12.443Z,98.71
2019-06-15T04:00:47.223Z,97.82
2019-06-15T04:03:52.420Z,97.45
2019-06-15T04:06:57.588Z,96.49
2019-06-15T04:10:02.772Z,97.19
2019-06-15T04:13:08.023Z,95.64
2019-06-15T04:16:13.179Z,94.54
2019-06-15T04:19:18.374Z,93.96
2019-06-15T04:22:23.580Z,93.57
2019-06-15T04:25:28.736Z,93.09
2019-06-15T04:28:33.941Z,91.28
2019-06-15T04:31:40.059Z,90.00
2019-06-15T04:34:45.458Z,92.88
2019-06-15T04:37:51.705Z,92.88
2019-06-15T04:40:56.872Z,91.37
2019-06-15T04:44:02.031Z,87.97
2019-06-15T04:47:07.401Z,86.03
2019-06-15T04:50:12.615Z,84.22
2019-06-15T04:53:17.812Z,83.76
2019-06-15T04:56:23.016Z,85.17
2019-06-15T04:59:28.273Z,85.27
2019-06-15T05:02:33.441Z,84.91
2019-06-15T05:05:38.670Z,83.19
2019-06-15T05:08:43.798Z,79.99
2019-06-15T05:11:48.981Z,78.36
2019-06-15T05:14:54.115Z,80.05
2019-06-15T05:17:59.301Z,79.46
2019-06-15T05:21:04.598Z,74.50
2019-06-15T05:24:09.758Z,71.66
2019-06-15T05:27:14.978Z,68.54
2019-06-15T05:30:21.623Z,68.74
2019-06-15T05:33:26.863Z,65.67
2019-06-15T05:36:32.046Z,63.89
2019-06-15T05:39:37.296Z,66.49
2019-06-15T05:42:42.478Z,68.48
2019-06-15T05:45:47.723Z,64.59
2019-06-15T05:48:52.951Z,60.52
2019-06-15T05:51:58.147Z,59.19
2019-06-15T05:55:03.389Z,59.86
2019-06-15T05:58:08.525Z,55.63
2019-06-15T06:01:14.458Z,55.09
2019-06-15T06:04:19.617Z,57.19
2019-06-15T06:07:24.892Z,53.73
2019-06-15T06:10:30.159Z,53.70
2019-06-15T06:13:35.359Z,53.24
2019-06-15T06:16:43.467Z,56.97
2019-06-15T06:19:48.632Z,53.82
2019-06-15T06:22:53.801Z,54.67
2019-06-15T06:25:58.956Z,51.32
2019-06-15T06:29:04.332Z,51.88
2019-06-15T06:32:09.531Z,53.92
2019-06-15T06:35:14.745Z,51.77
2019-06-15T06:38:19.897Z,53.21
2019-06-15T06:41:25.055Z,52.40
2019-06-15T06:44:30.310Z,50.98
2019-06-15T06:47:35.495Z,53.15
2019-06-15T06:50:41.401Z,54.38
2019-06-15T06:53:46.603Z,51.95
2019-06-15T06:56:51.821Z,51.07
2019-06-15T06:59:57.095Z,51.78
2019-06-15T07:03:02.364Z,51.33
2019-06-15T07:06:07.534Z,53.20
2019-06-15T07:09:12.774Z,55.92
2019-06-15T07:12:17.931Z,58.55
2019-06-15T07:15:24.132Z,57.06
2019-06-15T07:18:29.411Z,55.01
2019-06-15T07:21:34.551Z,55.96
2019-06-15T07:24:39.783Z,57.68
2019-06-15T07:27:44.986Z,58.15
2019-06-15T07:30:50.216Z,57.25
2019-06-15T07:33:55.381Z,58.27
2019-06-15T07:37:01.656Z,59.68
2019-06-15T07:40:08.404Z,58.54
2019-06-15T07:43:13.557Z,57.92
2019-06-15T07:46:18.703Z,56.69
2019-06-15T07:49:24.051Z,55.39
2019-06-15T07:52:29.315Z,52.61
2019-06-15T07:55:35.459Z,54.27
2019-06-15T07:58:40.600Z,54.35
2019-06-15T08:01:48.123Z,55.89
2019-06-15T08:04:53.424Z,55.02
2019-06-15T08:07:58.698Z,55.18
2019-06-15T08:11:03.996Z,54.68
2019-06-15T08:14:09.377Z,55.48
2019-06-15T08:17:14.574Z,54.45
2019-06-15T08:20:23.141Z,52.96
2019-06-15T08:23:29.353Z,56.36
2019-06-15T08:26:34.575Z,58.04
2019-06-15T08:29:39.736Z,55.66
2019-06-15T08:32:44.905Z,55.45
2019-06-15T08:35:50.073Z,55.38
2019-06-15T08:38:55.268Z,55.00
2019-06-15T08:42:00.414Z,56.37
2019-06-15T08:45:05.973Z,53.37
2019-06-15T08:48:11.512Z,53.91
2019-06-15T08:51:16.922Z,54.03
2019-06-15T08:54:22.201Z,54.69
2019-06-15T08:57:27.388Z,55.03
2019-06-15T09:00:32.611Z,56.87
2019-06-15T09:03:37.890Z,57.06
2019-06-15T09:06:43.162Z,55.84
2019-06-15T09:09:48.372Z,51.04
2019-06-15T09:12:53.568Z,51.01
2019-06-15T09:15:58.790Z,51.99
2019-06-15T09:19:03.987Z,53.66
2019-06-15T09:22:09.177Z,52.35
2019-06-15T09:25:14.337Z,52.67
2019-06-15T09:28:19.599Z,54.02
2019-06-15T09:31:24.757Z,53.92
2019-06-15T09:34:29.917Z,53.65
2019-06-15T09:37:35.117Z,53.99
2019-06-15T09:40:40.310Z,52.98
2019-06-15T09:43:45.480Z,53.26
2019-06-15T09:46:50.718Z,53.51
2019-06-15T09:49:55.892Z,54.70
2019-06-15T09:53:01.095Z,54.71
2019-06-15T09:56:06.353Z,54.15
2019-06-15T09:59:25.351Z,52.38
2019-06-15T10:02:18.489Z,51.21
2019-06-15T10:05:24.763Z,50.04
2019-06-15T10:08:30.072Z,49.03
2019-06-15T10:11:35.263Z,46.81
2019-06-15T10:14:40.427Z,49.46
2019-06-15T10:17:45.680Z,50.06
2019-06-15T10:20:50.875Z,51.17
2019-06-15T10:23:56.113Z,51.49
2019-06-15T10:27:01.393Z,50.92
2019-06-15T10:30:07.504Z,51.92
2019-06-15T10:33:12.697Z,51.71
2019-06-15T10:36:17.932Z,53.17
2019-06-15T10:39:23.250Z,52.93
2019-06-15T10:42:28.476Z,53.40
2019-06-15T10:45:34.017Z,52.62
2019-06-15T10:48:39.149Z,52.73
2019-06-15T10:51:44.458Z,53.49
2019-06-15T10:54:49.671Z,52.25
2019-06-15T10:57:54.867Z,50.22
2019-06-15T11:01:00.002Z,50.28
2019-06-15T11:04:05.213Z,48.87
2019-06-15T11:07:10.352Z,49.17
2019-06-15T11:10:17.560Z,49.20
2019-06-15T11:13:22.718Z,49.61
2019-06-15T11:16:28.053Z,49.21
2019-06-15T11:19:33.247Z,49.81
2019-06-15T11:22:38.363Z,46.19
2019-06-15T11:25:43.585Z,47.56
2019-06-15T11:28:48.764Z,50.17
2019-06-15T11:31:53.896Z,46.51
2019-06-15T11:34:59.094Z,48.89
2019-06-15T11:38:04.304Z,48.08
2019-06-15T11:41:09.479Z,46.82
2019-06-15T11:44:14.646Z,44.85
2019-06-15T11:47:19.805Z,46.18
2019-06-15T11:50:25.040Z,47.00
2019-06-15T11:53:30.217Z,45.54
2019-06-15T11:56:35.414Z,46.19
2019-06-15T11:59:40.659Z,46.12
2019-06-15T12:02:45.757Z,45.12
2019-06-15T12:05:51.049Z,43.58
2019-06-15T12:08:56.162Z,46.80
2019-06-15T12:12:01.355Z,44.15
2019-06-15T12:15:06.786Z,44.82
2019-06-15T12:18:11.990Z,46.05
2019-06-15T12:21:17.145Z,45.64
2019-06-15T12:24:22.343Z,45.43
2019-06-15T12:27:27.625Z,45.88
2019-06-15T12:30:47.114Z,47.58
2019-06-15T12:33:49.253Z,46.90
2019-06-15T12:36:54.498Z,48.06
2019-06-15T12:39:59.655Z,46.86
2019-06-15T12:43:04.750Z,47.67
2019-06-15T12:46:09.998Z,47.82
2019-06-15T12:49:15.162Z,46.27
2019-06-15T12:52:20.367Z,47.27
2019-06-15T12:55:25.566Z,47.41
2019-06-15T12:58:30.815Z,49.64
2019-06-15T13:01:36.016Z,47.98
2019-06-15T13:04:41.211Z,49.10
2019-06-15T13:07:46.428Z,47.93
2019-06-15T13:10:51.578Z,49.96
2019-06-15T13:13:57.727Z,49.79
2019-06-15T13:17:02.902Z,50.61
2019-06-15T13:20:08.799Z,50.32
2019-06-15T13:23:13.983Z,49.00
2019-06-15T13:26:19.239Z,48.69
2019-06-15T13:29:24.374Z,48.90
2019-06-15T13:32:29.703Z,48.60
2019-06-15T13:35:35.898Z,48.88
2019-06-15T13:38:41.094Z,50.24
2019-06-15T13:41:46.252Z,48.05
2019-06-15T13:44:51.451Z,48.17
2019-06-15T13:47:56.693Z,44.70
2019-06-15T13:51:01.876Z,46.99
2019-06-15T13:54:07.163Z,47.98
2019-06-15T13:57:13.389Z,45.83
2019-06-15T14:00:18.597Z,45.09
2019-06-15T14:03:23.791Z,44.47
2019-06-15T14:06:29.057Z,43.28
2019-06-15T14:09:34.260Z,44.30
2019-06-15T14:12:40.562Z,44.07
2019-06-15T14:15:45.686Z,43.41
2019-06-15T14:18:50.843Z,41.65
2019-06-15T14:21:55.993Z,42.40
2019-06-15T14:25:01.208Z,43.70
2019-06-15T14:28:06.544Z,44.90
2019-06-15T14:31:11.699Z,45.86
2019-06-15T14:34:16.868Z,42.91
2019-06-15T14:37:22.061Z,42.74
2019-06-15T14:40:27.308Z,46.39
2019-06-15T14:43:32.535Z,45.56
2019-06-15T14:46:37.731Z,46.67
2019-06-15T14:49:45.701Z,47.04
2019-06-15T14:52:50.894Z,46.40
2019-06-15T14:55:56.603Z,47.27
2019-06-15T14:59:01.854Z,46.80
2019-06-15T15:02:13.872Z,48.65
2019-06-15T15:05:17.662Z,47.73
2019-06-15T15:08:21.723Z,48.10
2019-06-15T15:11:26.880Z,49.07
2019-06-15T15:14:32.114Z,47.09
2019-06-15T15:17:37.421Z,47.87
2019-06-15T15:20:42.586Z,47.15
2019-06-15T15:23:47.816Z,48.38
2019-06-15T15:26:52.986Z,48.04
2019-06-15T15:29:58.215Z,47.54
2019-06-15T15:33:06.556Z,45.48
2019-06-15T15:36:10.368Z,46.89
2019-06-15T15:39:16.675Z,44.32
2019-06-15T15:42:22.000Z,46.24
2019-06-15T15:45:27.260Z,46.06
2019-06-15T15:48:32.461Z,46.94
2019-06-15T15:51:37.601Z,46.18
2019-06-15T15:54:42.856Z,46.98
2019-06-15T15:57:48.926Z,47.50
2019-06-15T16:00:54.192Z,46.34
2019-06-15T16:03:59.345Z,44.74
2019-06-15T16:07:06.620Z,44.00
2019-06-15T16:10:11.716Z,44.74
2019-06-15T16:13:16.965Z,43.78
2019-06-15T16:16:22.148Z,43.98
2019-06-15T16:19:27.448Z,43.99
2019-06-15T16:22:32.738Z,44.08
2019-06-15T16:25:37.886Z,44.20
2019-06-15T16:28:43.086Z,45.34
2019-06-15T16:31:48.255Z,46.98
2019-06-15T16:34:53.488Z,45.06
2019-06-15T16:37:58.708Z,41.85
2019-06-15T16:41:03.934Z,41.36
2019-06-15T16:44:09.153Z,43.45
2019-06-15T16:47:16.589Z,42.67
2019-06-15T16:50:21.261Z,43.33
2019-06-15T16:53:26.558Z,42.12
2019-06-15T16:56:31.771Z,40.41
2019-06-15T16:59:36.982Z,41.39
2019-06-15T17:02:42.228Z,41.45
2019-06-15T17:05:47.523Z,41.91
2019-06-15T17:08:52.734Z,39.71
2019-06-15T17:11:57.892Z,41.87
2019-06-15T17:15:03.184Z,42.12
2019-06-15T17:18:08.829Z,42.81
2019-06-15T17:21:14.051Z,41.52
2019-06-15T17:24:19.268Z,42.13
2019-06-15T17:27:26.232Z,41.83
2019-06-15T17:30:31.726Z,41.39
2019-06-15T17:33:38.423Z,42.34
2019-06-15T17:36:43.928Z,44.48
2019-06-15T17:39:49.155Z,44.72
2019-06-15T17:42:57.564Z,43.28
2019-06-15T17:46:08.220Z,42.59
2019-06-15T17:49:17.906Z,40.91
2019-06-15T17:52:26.421Z,40.12
2019-06-15T17:55:32.008Z,44.58
2019-06-15T17:58:37.289Z,48.87
2019-06-15T18:01:42.529Z,47.36
2019-06-15T18:04:47.696Z,49.95
2019-06-15T18:07:53.999Z,53.73
2019-06-15T18:10:59.168Z,54.54
2019-06-15T18:14:05.990Z,55.26
2019-06-15T18:17:11.241Z,57.76
2019-06-15T18:20:18.147Z,57.33
2019-06-15T18:23:23.299Z,59.23
2019-06-15T18:26:28.433Z,60.24
2019-06-15T18:29:33.606Z,60.58
2019-06-15T18:32:38.816Z,60.97
2019-06-15T18:35:44.027Z,57.20
2019-06-15T18:38:49.225Z,56.10
2019-06-15T18:41:55.972Z,55.91
2019-06-15T18:45:01.501Z,57.56
2019-06-15T18:48:06.695Z,59.08
2019-06-15T18:51:11.958Z,59.44
2019-06-15T18:54:17.215Z,61.70
2019-06-15T18:57:22.408Z,64.07
2019-06-15T19:00:27.602Z,66.05
2019-06-15T19:03:32.814Z,65.75
2019-06-15T19:06:38.041Z,66.96
2019-06-15T19:09:43.303Z,67.99
2019-06-15T19:12:48.545Z,67.77
2019-06-15T19:15:57.026Z,68.24
2019-06-15T19:19:01.710Z,69.66
2019-06-15T19:22:06.857Z,71.33
2019-06-15T19:25:12.802Z,72.22
2019-06-15T19:28:18.021Z,71.41
2019-06-15T19:31:23.394Z,72.57
2019-06-15T19:34:43.263Z,72.33
2019-06-15T19:37:37.069Z,72.95
2019-06-15T19:40:42.461Z,73.31
2019-06-15T19:43:47.680Z,74.32
2019-06-15T19:46:52.949Z,74.51
2019-06-15T19:49:58.209Z,75.01
2019-06-15T19:53:03.401Z,75.08
2019-06-15T19:56:08.738Z,75.76
2019-06-15T19:59:13.812Z,75.51
2019-06-15T20:02:19.162Z,75.81
2019-06-15T20:05:26.026Z,76.43
2019-06-15T20:08:31.327Z,76.59
2019-06-15T20:11:36.872Z,76.18
2019-06-15T20:14:42.094Z,75.66
2019-06-15T20:17:47.267Z,75.60
2019-06-15T20:20:52.691Z,75.10
2019-06-15T20:23:57.934Z,75.30
2019-06-15T20:27:03.122Z,75.32
2019-06-15T20:30:10.081Z,74.93
2019-06-15T20:33:16.594Z,74.54
2019-06-15T20:36:21.960Z,73.91
2019-06-15T20:39:30.274Z,77.20
2019-06-15T20:42:36.678Z,78.83
2019-06-15T20:45:42.102Z,80.15
2019-06-15T20:48:47.225Z,81.49
2019-06-15T20:51:52.513Z,82.18
2019-06-15T20:54:57.775Z,83.02
2019-06-15T20:58:03.069Z,83.60
2019-06-15T21:01:08.443Z,83.30
2019-06-15T21:04:16.031Z,82.63
2019-06-15T21:07:20.796Z,80.66
2019-06-15T21:10:26.497Z,79.59
2019-06-15T21:13:31.979Z,80.25
2019-06-15T21:16:37.192Z,80.41
2019-06-15T21:19:42.410Z,80.79
2019-06-15T21:22:47.585Z,82.16
2019-06-15T21:25:52.752Z,82.86
2019-06-15T21:28:57.938Z,82.69
2019-06-15T21:32:03.115Z,81.96
2019-06-15T21:35:08.630Z,83.63
2019-06-15T21:38:13.718Z,83.63
2019-06-15T21:41:19.058Z,84.88
2019-06-15T21:44:26.403Z,82.77
2019-06-15T21:47:31.203Z,81.37
2019-06-15T21:50:36.537Z,81.63
2019-06-15T21:53:41.857Z,82.08
2019-06-15T21:56:47.135Z,82.34
2019-06-15T21:59:52.280Z,82.81
2019-06-15T22:02:57.503Z,82.44
2019-06-15T22:06:03.555Z,83.87
2019-06-15T22:09:20.262Z,84.44
2019-06-15T22:12:22.688Z,84.17
2019-06-15T22:15:27.914Z,83.64
2019-06-15T22:18:33.106Z,84.80
2019-06-15T22:21:38.839Z,85.85
2019-06-15T22:24:44.031Z,86.25
2019-06-15T22:27:49.216Z,86.52
2019-06-15T22:30:56.991Z,87.10
2019-06-15T22:34:01.296Z,87.84
2019-06-15T22:37:07.038Z,88.50
2019-06-15T22:40:12.514Z,88.70
2019-06-15T22:43:17.662Z,87.52
2019-06-15T22:46:22.891Z,87.49
2019-06-15T22:49:29.050Z,87.33
2019-06-15T22:52:36.441Z,87.92
2019-06-15T22:55:42.022Z,88.64
2019-06-15T22:58:47.182Z,88.11
2019-06-15T23:01:52.522Z,87.54
2019-06-15T23:04:57.704Z,87.25
2019-06-15T23:08:02.857Z,87.04
2019-06-15T23:11:08.003Z,87.34
2019-06-15T23:14:13.211Z,87.77
2019-06-15T23:17:18.343Z,88.05
2019-06-15T23:20:26.829Z,88.65
2019-06-15T23:23:30.479Z,88.56
2019-06-15T23:26:36.851Z,88.15
2019-06-15T23:29:46.090Z,87.17
2019-06-15T23:32:50.425Z,87.48
2019-06-15T23:36:01.011Z,87.02
2019-06-15T23:39:07.775Z,89.24
2019-06-15T23:42:13.146Z,89.60
2019-06-15T23:45:18.966Z,89.60
2019-06-15T23:48:26.492Z,89.94
2019-06-15T23:51:31.411Z,88.17
2019-06-15T23:54:37.050Z,88.41
2019-06-15T23:57:42.248Z,87.62
